Time;durP1;ratioP1;P1;durP2;ratioP2;P2;SDS_P1;SDS_P2;PMS_P1;PMS_P2;Temp;Humidity;BMP_temperature;BMP_pressure;BME280_temperature;BME280_humidity;BME280_pressure;Samples;Min_cycle;Max_cycle;Signal;HPM_P1;HPM_P2
2024/02/03 00:00:07;;;;;;;2.15;2.05;;;7.10;99.90;;;;;;5023557;28;20243;-76
2024/02/03 00:02:34;;;;;;;2.40;2.30;;;7.20;99.90;;;;;;5027280;28;20309;-76
2024/02/03 00:05:02;;;;;;;2.50;2.40;;;7.20;99.90;;;;;;5027618;28;20207;-78
2024/02/03 00:07:29;;;;;;;2.20;2.10;;;7.20;99.90;;;;;;5031271;28;20199;-77
2024/02/03 00:09:57;;;;;;;2.95;2.75;;;7.30;99.90;;;;;;5023961;28;21094;-77
2024/02/03 00:12:28;;;;;;;2.13;2.03;;;7.20;99.90;;;;;;5026051;28;20231;-77
2024/02/03 00:14:55;;;;;;;2.30;2.20;;;7.30;99.90;;;;;;5024481;28;20211;-78
2024/02/03 00:17:22;;;;;;;2.30;2.15;;;7.30;99.90;;;;;;5025264;28;20208;-77
2024/02/03 00:19:53;;;;;;;2.17;2.00;;;7.30;99.90;;;;;;5026698;28;20593;-78
2024/02/03 00:22:21;;;;;;;2.13;2.03;;;7.30;99.90;;;;;;5024792;28;20257;-77
2024/02/03 00:24:49;;;;;;;2.17;2.08;;;7.50;99.90;;;;;;5025516;28;20207;-78
2024/02/03 00:27:16;;;;;;;2.25;2.15;;;7.50;99.90;;;;;;5026271;28;20204;-76
2024/02/03 00:29:43;;;;;;;2.47;2.38;;;7.50;99.90;;;;;;5028506;28;20227;-78
2024/02/03 00:32:11;;;;;;;2.00;1.90;;;7.50;99.90;;;;;;5025307;28;20219;-76
2024/02/03 00:34:38;;;;;;;1.92;1.83;;;7.60;99.90;;;;;;5028844;28;20210;-77
2024/02/03 00:37:05;;;;;;;2.00;1.90;;;7.60;99.90;;;;;;5024534;28;20985;-77
2024/02/03 00:39:33;;;;;;;2.15;2.05;;;7.60;99.90;;;;;;5026930;28;20225;-78
2024/02/03 00:42:00;;;;;;;2.38;2.28;;;7.50;99.90;;;;;;5023552;28;20869;-78
2024/02/03 00:44:27;;;;;;;2.00;1.90;;;7.50;99.90;;;;;;5026374;28;20215;-78
2024/02/03 00:46:54;;;;;;;2.22;2.13;;;7.50;99.90;;;;;;5026098;28;20824;-77
2024/02/03 00:49:22;;;;;;;1.92;1.83;;;7.50;99.90;;;;;;5027164;28;20238;-78
2024/02/03 00:51:49;;;;;;;1.88;1.77;;;7.50;99.90;;;;;;5025394;28;20215;-77
2024/02/03 00:54:16;;;;;;;2.17;2.08;;;7.50;99.90;;;;;;5026283;28;20224;-78
2024/02/03 00:56:44;;;;;;;2.15;2.05;;;7.60;99.90;;;;;;5030724;28;20223;-77
2024/02/03 00:59:11;;;;;;;2.40;2.30;;;7.60;99.90;;;;;;5027771;28;20227;-77
2024/02/03 01:01:38;;;;;;;2.50;2.30;;;7.60;99.90;;;;;;5028536;28;20219;-78
2024/02/03 01:04:05;;;;;;;2.38;2.15;;;7.70;99.90;;;;;;5029356;28;20195;-77
2024/02/03 01:06:32;;;;;;;2.20;2.10;;;7.60;99.90;;;;;;5026396;28;20221;-78
2024/02/03 01:08:59;;;;;;;2.13;2.03;;;7.70;99.90;;;;;;5025467;28;20318;-78
2024/02/03 01:11:27;;;;;;;1.98;1.88;;;7.70;99.90;;;;;;5026299;28;20239;-77
2024/02/03 01:13:55;;;;;;;2.20;2.10;;;7.80;99.90;;;;;;5029725;28;20725;-75
2024/02/03 01:16:23;;;;;;;2.15;2.05;;;7.80;99.90;;;;;;5027406;28;20752;-78
2024/02/03 01:18:50;;;;;;;2.00;1.90;;;7.80;99.90;;;;;;5026195;28;20276;-77
2024/02/03 01:21:17;;;;;;;2.08;1.98;;;7.80;99.90;;;;;;5025558;28;20231;-77
2024/02/03 01:23:44;;;;;;;2.10;2.00;;;7.80;99.90;;;;;;5026404;28;20199;-77
2024/02/03 01:26:11;;;;;;;2.95;1.80;;;7.80;99.90;;;;;;5027114;28;20240;-77
2024/02/03 01:28:38;;;;;;;2.40;2.30;;;7.70;99.90;;;;;;5025879;28;20226;-78
2024/02/03 01:31:07;;;;;;;2.30;2.20;;;7.70;99.90;;;;;;5029141;28;20229;-77
2024/02/03 01:33:34;;;;;;;2.30;2.20;;;7.80;99.90;;;;;;5026204;28;20235;-78
2024/02/03 01:36:01;;;;;;;1.90;1.80;;;7.80;99.90;;;;;;5024507;28;20848;-77
2024/02/03 01:38:28;;;;;;;2.10;2.00;;;7.80;99.90;;;;;;5026550;28;20230;-77
2024/02/03 01:40:55;;;;;;;2.10;2.00;;;7.70;99.90;;;;;;5027586;28;20226;-78
2024/02/03 01:43:22;;;;;;;2.10;2.00;;;7.70;99.90;;;;;;5026131;28;20210;-77
2024/02/03 01:45:50;;;;;;;1.83;1.73;;;7.70;99.90;;;;;;5036455;28;20227;-78
2024/02/03 01:48:18;;;;;;;2.10;2.00;;;7.70;99.90;;;;;;5035775;28;20293;-77
2024/02/03 01:50:50;;;;;;;1.90;1.80;;;7.70;99.90;;;;;;5027097;28;20839;-77
2024/02/03 01:53:18;;;;;;;2.17;2.08;;;7.80;99.90;;;;;;5027954;28;20225;-77
2024/02/03 01:55:46;;;;;;;2.00;1.90;;;7.80;99.90;;;;;;5027859;28;20222;-77
2024/02/03 01:58:13;;;;;;;2.47;2.20;;;7.80;99.90;;;;;;5026605;28;20229;-77
2024/02/03 02:00:41;;;;;;;2.20;2.10;;;7.80;99.90;;;;;;5028098;28;20231;-77
2024/02/03 02:03:08;;;;;;;1.80;1.70;;;7.90;99.90;;;;;;5026602;28;20223;-77
2024/02/03 02:05:37;;;;;;;2.10;2.00;;;7.80;99.90;;;;;;5026703;28;20618;-77
2024/02/03 02:08:04;;;;;;;2.10;2.00;;;7.80;99.90;;;;;;5024821;28;20199;-78
2024/02/03 02:10:31;;;;;;;2.13;2.03;;;7.80;99.90;;;;;;5028314;28;20227;-76
2024/02/03 02:12:58;;;;;;;2.00;1.90;;;8.00;99.90;;;;;;5027461;28;20763;-76
2024/02/03 02:15:25;;;;;;;2.17;2.00;;;8.00;99.90;;;;;;5024381;28;20229;-77
2024/02/03 02:17:58;;;;;;;2.30;2.20;;;8.00;99.90;;;;;;5026644;28;20214;-75
2024/02/03 02:20:26;;;;;;;2.10;2.00;;;8.00;99.90;;;;;;5028551;28;20251;-77
2024/02/03 02:25:58;;;;;;;2.08;1.98;;;7.80;99.90;;;;;;5109903;27;20658;-76
2024/02/03 02:28:25;;;;;;;2.22;2.13;;;7.80;99.90;;;;;;5096032;28;20232;-75
2024/02/03 02:30:52;;;;;;;2.50;2.40;;;7.80;99.90;;;;;;5098002;28;20228;-75
2024/02/03 02:33:19;;;;;;;2.92;2.67;;;7.70;99.90;;;;;;5098567;28;20228;-76
2024/02/03 02:35:49;;;;;;;2.95;2.75;;;7.50;99.90;;;;;;5098208;28;20598;-76
2024/02/03 02:38:18;;;;;;;2.40;2.30;;;7.30;99.90;;;;;;5097844;28;20217;-76
2024/02/03 02:40:45;;;;;;;3.30;2.88;;;7.20;99.90;;;;;;5095240;27;20270;-76
2024/02/03 02:43:13;;;;;;;3.40;3.10;;;7.10;99.90;;;;;;5095335;28;20205;-77
2024/02/03 02:45:41;;;;;;;3.60;3.30;;;7.00;99.90;;;;;;5094475;28;20790;-78
2024/02/03 02:48:08;;;;;;;3.58;3.10;;;6.80;99.90;;;;;;5098485;28;20205;-78
2024/02/03 02:50:35;;;;;;;3.30;3.10;;;6.50;99.90;;;;;;5101390;28;20220;-75
2024/02/03 02:53:02;;;;;;;3.17;2.97;;;6.40;99.90;;;;;;5094842;28;20568;-77
2024/02/03 02:55:29;;;;;;;3.00;2.80;;;6.30;99.90;;;;;;5094724;28;20217;-76
2024/02/03 02:57:56;;;;;;;3.42;3.20;;;6.20;99.90;;;;;;5094246;28;20201;-76
2024/02/03 03:00:25;;;;;;;3.13;2.92;;;6.20;99.90;;;;;;5096195;28;20856;-77
2024/02/03 03:02:51;;;;;;;3.00;2.80;;;6.30;99.90;;;;;;5100980;28;20213;-77
2024/02/03 03:05:18;;;;;;;3.08;2.88;;;6.40;99.90;;;;;;5096697;28;20240;-76
2024/02/03 03:07:46;;;;;;;3.10;2.90;;;6.50;99.90;;;;;;5098240;28;20205;-75
2024/02/03 03:10:13;;;;;;;3.20;2.97;;;6.50;99.90;;;;;;5096990;27;20225;-76
2024/02/03 03:12:40;;;;;;;3.03;2.83;;;6.50;99.90;;;;;;5095692;28;20564;-77
2024/02/03 03:15:08;;;;;;;3.13;2.92;;;6.50;99.90;;;;;;5096315;28;20228;-77
2024/02/03 03:17:37;;;;;;;4.63;2.72;;;6.50;99.90;;;;;;5095955;28;20205;-78
2024/02/03 03:20:05;;;;;;;2.70;2.60;;;6.50;99.90;;;;;;5104033;28;20221;-76
2024/02/03 03:22:32;;;;;;;2.60;2.50;;;6.50;99.90;;;;;;5107394;28;20201;-77
2024/02/03 03:24:59;;;;;;;2.85;2.70;;;6.50;99.90;;;;;;5098599;28;20232;-78
2024/02/03 03:27:26;;;;;;;2.58;2.47;;;6.60;99.90;;;;;;5094447;28;20232;-77
2024/02/03 03:29:54;;;;;;;2.65;2.55;;;6.70;99.90;;;;;;5099738;28;20282;-78
2024/02/03 03:32:21;;;;;;;2.58;2.47;;;6.70;99.90;;;;;;5097124;28;20205;-77
2024/02/03 03:34:49;;;;;;;2.50;2.40;;;6.70;99.90;;;;;;5100181;28;20197;-77
2024/02/03 03:37:17;;;;;;;2.65;2.45;;;6.70;99.90;;;;;;5079082;28;20308;-75
2024/02/03 03:39:45;;;;;;;2.47;2.35;;;6.70;99.90;;;;;;5083879;28;20634;-75
2024/02/03 03:42:12;;;;;;;2.55;2.45;;;6.70;99.90;;;;;;5079546;28;20228;-76
2024/02/03 03:44:39;;;;;;;2.60;2.50;;;6.80;99.90;;;;;;5081830;28;20214;-75
2024/02/03 03:47:06;;;;;;;2.72;2.53;;;6.80;99.90;;;;;;5078568;28;20769;-76
2024/02/03 03:49:33;;;;;;;2.35;2.25;;;6.80;99.90;;;;;;5084084;28;20309;-76
2024/02/03 03:52:01;;;;;;;3.03;2.42;;;6.80;99.90;;;;;;5081296;28;20282;-75
2024/02/03 03:54:28;;;;;;;2.75;2.65;;;6.70;99.90;;;;;;5084412;28;20198;-75
2024/02/03 03:56:55;;;;;;;2.25;2.10;;;6.70;99.90;;;;;;5081533;28;20659;-75
2024/02/03 03:59:22;;;;;;;2.53;2.42;;;6.70;99.90;;;;;;5080578;28;20712;-76
2024/02/03 04:01:49;;;;;;;2.40;2.30;;;6.80;99.90;;;;;;5079160;28;20272;-78
2024/02/03 04:04:17;;;;;;;2.50;2.40;;;6.70;99.90;;;;;;5084744;28;20300;-75
2024/02/03 04:06:45;;;;;;;2.40;2.30;;;6.70;99.90;;;;;;5083530;28;20226;-76
2024/02/03 04:09:15;;;;;;;2.72;2.58;;;6.70;99.90;;;;;;5080683;28;20214;-76
2024/02/03 04:11:42;;;;;;;2.47;2.22;;;6.70;99.90;;;;;;5088876;28;20228;-76
2024/02/03 04:14:09;;;;;;;2.17;2.08;;;6.60;99.90;;;;;;5083765;28;20284;-77
2024/02/03 04:16:36;;;;;;;2.60;2.50;;;6.70;99.90;;;;;;5084789;28;20213;-75
2024/02/03 04:19:03;;;;;;;2.47;2.38;;;6.70;99.90;;;;;;5081163;28;20222;-74
2024/02/03 04:21:30;;;;;;;2.70;2.60;;;6.70;99.90;;;;;;5081332;28;20241;-77
2024/02/03 04:23:57;;;;;;;2.50;2.40;;;6.60;99.90;;;;;;5084996;28;20207;-77
2024/02/03 04:26:26;;;;;;;2.47;2.25;;;6.70;99.90;;;;;;5084326;28;20284;-78
2024/02/03 04:28:53;;;;;;;2.40;2.30;;;6.70;99.90;;;;;;5083087;28;20237;-77
2024/02/03 04:31:20;;;;;;;2.70;2.50;;;6.60;99.90;;;;;;5086140;28;20229;-77
2024/02/03 04:33:47;;;;;;;2.47;2.38;;;6.60;99.90;;;;;;5085257;28;20634;-78
2024/02/03 04:36:14;;;;;;;2.50;2.40;;;6.60;99.90;;;;;;5081307;28;20288;-79
2024/02/03 04:38:41;;;;;;;2.38;2.28;;;6.60;99.90;;;;;;5080662;28;20274;-78
2024/02/03 04:41:08;;;;;;;2.42;2.30;;;6.60;99.90;;;;;;5082726;28;20213;-76
2024/02/03 04:43:37;;;;;;;2.42;2.33;;;6.70;99.90;;;;;;5081886;28;20213;-76
2024/02/03 04:46:04;;;;;;;2.80;2.60;;;6.70;99.90;;;;;;5081955;28;20225;-77
2024/02/03 04:48:31;;;;;;;2.50;2.40;;;6.60;99.90;;;;;;5089977;28;20509;-75
2024/02/03 04:50:58;;;;;;;2.63;2.53;;;6.60;99.90;;;;;;5081274;28;20244;-76
2024/02/03 04:53:25;;;;;;;2.53;2.42;;;6.60;99.90;;;;;;5082500;28;20217;-76
2024/02/03 04:55:52;;;;;;;2.20;2.10;;;6.50;99.90;;;;;;5084579;28;20293;-76
2024/02/03 04:58:19;;;;;;;2.70;2.60;;;6.60;99.90;;;;;;5080526;28;20295;-77
2024/02/03 05:00:47;;;;;;;2.50;2.40;;;6.60;99.90;;;;;;5076796;28;20332;-77
2024/02/03 05:03:14;;;;;;;2.50;2.40;;;6.60;99.90;;;;;;5081322;28;20220;-77
2024/02/03 05:05:41;;;;;;;2.22;2.13;;;6.70;99.90;;;;;;5081432;28;20362;-76
2024/02/03 05:08:08;;;;;;;2.50;2.40;;;6.70;99.90;;;;;;5083519;28;20719;-78
2024/02/03 05:10:35;;;;;;;2.50;2.40;;;6.70;99.90;;;;;;5074546;28;20271;-78
2024/02/03 05:13:02;;;;;;;2.40;2.30;;;6.70;99.90;;;;;;5083270;28;20204;-76
2024/02/03 05:15:29;;;;;;;2.20;2.10;;;6.70;99.90;;;;;;5083238;28;20218;-75
2024/02/03 05:17:57;;;;;;;2.28;2.17;;;6.80;99.90;;;;;;5079204;28;20814;-79
2024/02/03 05:20:24;;;;;;;2.10;2.00;;;6.80;99.90;;;;;;5081940;28;20792;-77
2024/02/03 05:22:51;;;;;;;2.40;2.30;;;6.70;99.90;;;;;;5077919;28;20209;-76
2024/02/03 05:25:18;;;;;;;2.17;2.08;;;6.70;99.90;;;;;;5081434;28;20268;-77
2024/02/03 05:27:45;;;;;;;2.03;1.92;;;6.80;99.90;;;;;;5078354;28;20794;-77
2024/02/03 05:30:12;;;;;;;2.58;2.47;;;6.80;99.90;;;;;;5080046;28;20288;-77
2024/02/03 05:32:39;;;;;;;3.70;3.40;;;6.80;99.90;;;;;;5080956;28;20221;-77
2024/02/03 05:35:08;;;;;;;2.90;2.70;;;6.80;99.90;;;;;;5077373;28;20233;-77
2024/02/03 05:37:35;;;;;;;2.90;2.80;;;6.80;99.90;;;;;;5074840;28;20246;-76
2024/02/03 05:40:03;;;;;;;3.03;2.83;;;6.80;99.90;;;;;;5077450;28;20245;-76
2024/02/03 05:42:30;;;;;;;2.53;2.42;;;6.80;99.90;;;;;;5081981;28;20422;-78
2024/02/03 05:44:58;;;;;;;2.88;2.78;;;6.80;99.90;;;;;;5079290;28;20290;-77
2024/02/03 05:47:25;;;;;;;3.00;2.90;;;6.80;99.90;;;;;;5077936;28;20205;-77
2024/02/03 05:49:52;;;;;;;2.70;2.60;;;6.80;99.90;;;;;;5079937;28;20218;-77
2024/02/03 05:52:21;;;;;;;3.30;3.10;;;6.80;99.90;;;;;;5080627;28;20193;-78
2024/02/03 05:54:48;;;;;;;2.95;2.85;;;6.70;99.90;;;;;;5077815;28;20216;-78
2024/02/03 05:57:15;;;;;;;3.10;2.90;;;6.60;99.90;;;;;;5083744;28;20205;-76
2024/02/03 05:59:44;;;;;;;2.92;2.72;;;6.50;99.90;;;;;;5085123;28;20251;-76
2024/02/03 06:02:11;;;;;;;2.80;2.70;;;6.50;99.90;;;;;;5080899;28;20740;-77
2024/02/03 06:04:39;;;;;;;2.50;2.40;;;6.50;99.90;;;;;;5083913;28;20266;-78
2024/02/03 06:07:06;;;;;;;2.60;2.50;;;6.50;99.90;;;;;;5075867;28;20711;-75
2024/02/03 06:09:34;;;;;;;2.47;2.38;;;6.40;99.90;;;;;;5079567;28;20245;-77
2024/02/03 06:12:03;;;;;;;2.70;2.50;;;6.40;99.90;;;;;;5073210;28;20920;-76
2024/02/03 06:14:32;;;;;;;2.75;2.65;;;6.40;99.90;;;;;;5084332;28;20869;-76
2024/02/03 06:16:58;;;;;;;2.70;2.60;;;6.40;99.90;;;;;;5080600;28;20256;-78
2024/02/03 06:19:25;;;;;;;2.80;2.70;;;6.40;99.90;;;;;;5079696;28;20979;-77
2024/02/03 06:21:52;;;;;;;3.10;2.90;;;6.40;99.90;;;;;;5082389;28;20321;-77
2024/02/03 06:24:19;;;;;;;2.92;2.80;;;6.40;99.90;;;;;;5080051;28;20206;-76
2024/02/03 06:26:47;;;;;;;3.20;3.00;;;6.40;99.90;;;;;;5077504;28;20262;-76
2024/02/03 06:29:14;;;;;;;3.10;2.90;;;6.40;99.90;;;;;;5079514;28;20270;-76
2024/02/03 06:31:41;;;;;;;2.63;2.53;;;6.40;99.90;;;;;;5072246;28;20267;-76
2024/02/03 06:34:08;;;;;;;2.75;2.60;;;6.40;99.90;;;;;;5084698;28;20206;-75
2024/02/03 06:36:35;;;;;;;3.03;2.83;;;6.40;99.90;;;;;;5086134;28;20266;-78
2024/02/03 06:39:03;;;;;;;2.85;2.75;;;6.40;99.90;;;;;;5081159;28;20241;-78
2024/02/03 06:41:30;;;;;;;2.60;2.50;;;6.30;99.90;;;;;;5081345;28;20699;-75
2024/02/03 06:43:59;;;;;;;2.33;2.22;;;6.30;99.90;;;;;;5081005;28;20190;-78
2024/02/03 06:46:25;;;;;;;3.05;2.95;;;6.30;99.90;;;;;;5088265;28;20205;-76
2024/02/03 06:48:52;;;;;;;2.75;2.60;;;6.30;99.90;;;;;;5089124;28;20263;-77
2024/02/03 06:51:19;;;;;;;2.83;2.72;;;6.30;99.90;;;;;;5079601;28;20294;-76
2024/02/03 06:53:46;;;;;;;3.03;2.83;;;6.20;99.90;;;;;;5084102;28;20665;-76
2024/02/03 06:56:13;;;;;;;3.60;3.30;;;6.10;99.90;;;;;;5080164;28;20287;-77
2024/02/03 06:58:40;;;;;;;3.78;3.47;;;6.10;99.90;;;;;;5077819;28;20218;-77
2024/02/03 07:01:09;;;;;;;4.25;3.95;;;6.10;99.90;;;;;;5076238;28;20306;-75
2024/02/03 07:03:36;;;;;;;4.15;3.80;;;6.10;99.90;;;;;;5078823;28;20197;-76
2024/02/03 07:06:03;;;;;;;4.00;3.70;;;6.10;99.90;;;;;;5080725;28;20294;-77
2024/02/03 07:08:30;;;;;;;4.20;3.90;;;6.00;99.90;;;;;;5076140;28;20217;-76
2024/02/03 07:10:57;;;;;;;4.40;4.00;;;6.00;99.90;;;;;;5077114;28;20826;-77
2024/02/03 07:13:25;;;;;;;4.57;4.18;;;6.00;99.90;;;;;;5085827;28;20201;-78
2024/02/03 07:15:52;;;;;;;4.10;3.80;;;6.00;99.90;;;;;;5081970;28;20236;-77
2024/02/03 07:18:20;;;;;;;4.15;3.85;;;6.00;99.90;;;;;;5078595;28;20246;-76
2024/02/03 07:20:47;;;;;;;4.22;3.83;;;6.00;99.90;;;;;;5080069;28;20253;-77
2024/02/03 07:23:14;;;;;;;4.40;4.00;;;6.00;99.90;;;;;;5082274;28;20226;-76
2024/02/03 07:25:41;;;;;;;4.18;3.88;;;6.00;99.90;;;;;;5080134;28;20824;-76
2024/02/03 07:28:08;;;;;;;3.78;3.58;;;6.10;99.90;;;;;;5084670;28;20193;-78
2024/02/03 07:30:35;;;;;;;3.67;3.45;;;6.10;99.90;;;;;;5083377;28;20890;-75
2024/02/03 07:33:04;;;;;;;3.45;3.25;;;6.20;99.90;;;;;;5085944;28;20233;-78
2024/02/03 07:35:32;;;;;;;3.60;3.35;;;6.30;99.90;;;;;;5083820;28;20209;-76
2024/02/03 07:37:59;;;;;;;3.58;3.38;;;6.30;99.90;;;;;;5082744;28;20780;-78
2024/02/03 07:40:26;;;;;;;3.38;3.17;;;6.40;99.90;;;;;;5083225;28;20631;-75
2024/02/03 07:42:53;;;;;;;3.58;3.28;;;6.50;99.90;;;;;;5082662;28;20246;-75
2024/02/03 07:45:20;;;;;;;3.47;3.28;;;6.50;99.90;;;;;;5082986;28;20892;-75
2024/02/03 07:47:47;;;;;;;5.57;5.07;;;6.60;99.90;;;;;;5080768;28;20258;-75
2024/02/03 07:50:14;;;;;;;5.80;5.30;;;6.60;99.90;;;;;;5084800;28;20257;-76
2024/02/03 07:52:45;;;;;;;5.43;4.93;;;6.70;99.90;;;;;;5082307;28;20221;-77
2024/02/03 07:55:12;;;;;;;5.50;5.00;;;6.90;99.90;;;;;;5084389;28;20563;-76
2024/02/03 07:57:39;;;;;;;6.68;5.28;;;7.10;99.90;;;;;;5084938;28;20213;-76
2024/02/03 08:00:08;;;;;;;5.07;4.57;;;7.20;99.90;;;;;;5083018;28;20233;-75
2024/02/03 08:02:35;;;;;;;4.60;4.20;;;7.40;99.90;;;;;;5078333;28;20285;-76
2024/02/03 08:05:02;;;;;;;4.78;4.38;;;7.60;99.90;;;;;;5083871;28;20193;-77
2024/02/03 08:07:29;;;;;;;4.72;4.32;;;7.80;99.90;;;;;;5080092;28;20210;-78
2024/02/03 08:09:58;;;;;;;5.90;5.40;;;7.90;99.90;;;;;;5085982;28;20261;-78
2024/02/03 08:12:24;;;;;;;6.20;5.70;;;8.00;99.90;;;;;;5082734;28;20219;-78
2024/02/03 08:14:51;;;;;;;6.55;5.95;;;8.10;99.90;;;;;;5085262;28;20252;-77
2024/02/03 08:17:21;;;;;;;5.38;4.97;;;8.20;99.90;;;;;;5086415;28;20247;-75
2024/02/03 08:19:48;;;;;;;4.95;4.55;;;8.40;99.90;;;;;;5078943;28;20279;-76
2024/02/03 08:22:15;;;;;;;4.50;4.10;;;8.80;99.90;;;;;;5082575;28;21001;-76
2024/02/03 08:24:42;;;;;;;3.85;3.53;;;9.50;99.90;;;;;;5082004;28;20233;-76
2024/02/03 08:27:10;;;;;;;3.88;3.58;;;10.20;99.90;;;;;;5083192;28;20277;-75
2024/02/03 08:29:37;;;;;;;4.28;3.97;;;10.80;99.90;;;;;;5084274;28;20648;-77
2024/02/03 08:32:05;;;;;;;5.65;5.18;;;11.30;99.90;;;;;;5085319;28;20249;-77
2024/02/03 08:34:32;;;;;;;6.32;5.22;;;11.70;99.90;;;;;;5083451;28;20205;-75
2024/02/03 08:36:59;;;;;;;5.80;5.30;;;12.10;99.90;;;;;;5080924;28;20341;-76
2024/02/03 08:39:26;;;;;;;7.15;6.47;;;12.30;99.90;;;;;;5078306;28;20217;-75
2024/02/03 08:41:53;;;;;;;7.78;6.32;;;12.50;99.90;;;;;;5078323;28;20258;-77
2024/02/03 08:44:21;;;;;;;11.27;8.73;;;12.70;99.90;;;;;;5078821;28;20226;-75
2024/02/03 08:46:50;;;;;;;7.57;6.53;;;12.80;99.90;;;;;;5087097;28;20222;-76
2024/02/03 08:49:17;;;;;;;7.28;6.53;;;12.80;99.90;;;;;;5099360;28;20218;-76
2024/02/03 08:51:44;;;;;;;6.60;6.00;;;12.80;99.90;;;;;;5095847;28;20220;-76
2024/02/03 08:54:10;;;;;;;6.97;6.28;;;13.00;99.90;;;;;;5081056;28;20267;-74
2024/02/03 08:56:37;;;;;;;5.60;5.10;;;13.20;99.90;;;;;;5083487;28;20241;-75
2024/02/03 08:59:04;;;;;;;5.10;4.70;;;13.30;99.90;;;;;;5078948;28;20245;-77
2024/02/03 09:01:33;;;;;;;4.68;3.95;;;13.30;99.90;;;;;;5079356;28;20266;-77
2024/02/03 09:04:00;;;;;;;3.85;3.55;;;13.40;99.90;;;;;;5076436;28;20210;-75
2024/02/03 09:06:26;;;;;;;3.90;3.60;;;13.70;99.90;;;;;;5082627;28;20946;-74
2024/02/03 09:08:53;;;;;;;3.22;2.92;;;14.00;99.90;;;;;;5079487;28;20424;-76
2024/02/03 09:11:21;;;;;;;4.28;3.88;;;14.40;99.90;;;;;;5082797;28;20266;-75
2024/02/03 09:13:48;;;;;;;4.18;3.60;;;14.80;99.90;;;;;;5076302;28;20202;-77
2024/02/03 09:16:15;;;;;;;5.00;4.30;;;15.10;99.90;;;;;;5080320;28;20267;-77
2024/02/03 09:18:43;;;;;;;4.50;4.10;;;15.30;99.90;;;;;;5078373;28;20221;-76
2024/02/03 09:21:10;;;;;;;5.90;4.40;;;15.60;99.90;;;;;;5079200;28;21759;-77
2024/02/03 09:23:39;;;;;;;4.35;3.90;;;15.80;99.90;;;;;;5084655;28;20634;-77
2024/02/03 09:26:07;;;;;;;4.57;4.18;;;16.00;99.90;;;;;;5084657;28;20242;-77
2024/02/03 09:28:34;;;;;;;4.63;4.07;;;16.10;99.90;;;;;;5077884;28;20700;-77
2024/02/03 09:31:01;;;;;;;6.78;4.20;;;16.30;99.90;;;;;;5083036;28;20222;-77
2024/02/03 09:33:28;;;;;;;5.32;4.82;;;16.50;99.90;;;;;;5083641;28;20199;-77
2024/02/03 09:35:56;;;;;;;5.65;4.93;;;16.90;99.90;;;;;;5089648;28;20225;-76
2024/02/03 09:38:23;;;;;;;5.45;4.93;;;17.80;99.90;;;;;;5086843;28;20303;-77
2024/02/03 09:40:51;;;;;;;5.20;4.70;;;18.90;99.90;;;;;;5085906;28;20221;-76
2024/02/03 09:43:18;;;;;;;5.03;4.57;;;20.10;99.90;;;;;;5083788;28;20198;-77
2024/02/03 09:45:45;;;;;;;5.65;4.70;;;20.70;99.90;;;;;;5079173;28;20245;-76
2024/02/03 09:48:12;;;;;;;5.90;5.30;;;20.90;99.90;;;;;;5080502;28;20620;-77
2024/02/03 09:50:40;;;;;;;4.40;4.00;;;20.70;99.90;;;;;;5080162;28;20254;-74
2024/02/03 09:53:10;;;;;;;6.55;4.78;;;19.70;99.90;;;;;;5080818;28;20232;-76
2024/02/03 09:55:38;;;;;;;5.07;4.13;;;19.20;99.90;;;;;;5080560;28;20221;-75
2024/02/03 09:58:04;;;;;;;4.40;4.00;;;18.70;99.90;;;;;;5082941;28;20254;-76
2024/02/03 10:00:31;;;;;;;4.65;4.25;;;18.60;99.90;;;;;;5081387;28;20318;-76
2024/02/03 10:02:58;;;;;;;5.68;4.60;;;18.40;99.90;;;;;;5084487;28;20197;-76
2024/02/03 10:05:27;;;;;;;4.97;4.07;;;18.40;99.90;;;;;;5077000;28;20260;-76
2024/02/03 10:08:00;;;;;;;5.05;4.47;;;18.30;99.90;;;;;;5083425;28;20295;-77
2024/02/03 10:10:29;;;;;;;5.40;4.15;;;18.30;99.90;;;;;;5077897;28;20332;-76
2024/02/03 10:13:04;;;;;;;4.15;3.75;;;18.10;99.90;;;;;;5082835;28;20201;-76
2024/02/03 10:15:32;;;;;;;6.13;4.60;;;18.00;99.90;;;;;;5080086;28;20300;-77
2024/02/03 10:17:59;;;;;;;5.00;4.50;;;18.00;99.90;;;;;;5085955;28;20285;-78
2024/02/03 10:20:26;;;;;;;4.65;4.18;;;17.80;99.90;;;;;;5079699;28;20330;-78
2024/02/03 10:22:53;;;;;;;6.18;4.13;;;17.90;99.90;;;;;;5084186;28;20255;-77
2024/02/03 10:25:25;;;;;;;6.30;4.20;;;17.90;99.90;;;;;;5075899;28;20262;-77
2024/02/03 10:28:03;;;;;;;4.10;3.70;;;17.90;99.90;;;;;;5073570;28;20304;-76
2024/02/03 10:30:30;;;;;;;5.55;3.72;;;17.90;99.90;;;;;;5076937;28;20220;-75
2024/02/03 10:33:00;;;;;;;3.72;3.42;;;17.90;99.90;;;;;;5082061;28;20577;-77
2024/02/03 10:35:28;;;;;;;4.05;3.50;;;18.00;99.90;;;;;;5075815;28;20304;-74
2024/02/03 10:37:55;;;;;;;4.38;4.00;;;18.20;99.90;;;;;;5080922;28;20840;-77
2024/02/03 10:40:22;;;;;;;4.85;3.72;;;18.30;99.90;;;;;;5075117;28;20252;-77
2024/02/03 10:42:52;;;;;;;3.65;3.35;;;18.30;99.90;;;;;;5079783;28;20688;-77
2024/02/03 10:45:26;;;;;;;3.70;3.40;;;18.50;99.90;;;;;;5075778;28;20306;-75
2024/02/03 10:47:55;;;;;;;3.80;3.50;;;18.50;99.90;;;;;;5084155;28;20863;-75
2024/02/03 10:50:24;;;;;;;4.10;3.80;;;18.30;99.90;;;;;;5075080;28;20990;-77
2024/02/03 10:52:54;;;;;;;4.05;3.65;;;18.40;99.90;;;;;;5086514;28;20205;-77
2024/02/03 10:55:22;;;;;;;5.18;3.75;;;18.50;99.90;;;;;;5098898;28;20260;-76
2024/02/03 10:57:51;;;;;;;6.38;3.38;;;18.70;99.90;;;;;;5088052;28;20250;-77
2024/02/03 11:00:21;;;;;;;4.05;3.65;;;18.70;99.90;;;;;;5082695;28;20279;-77
2024/02/03 11:02:53;;;;;;;3.90;3.60;;;18.70;99.90;;;;;;5085496;28;20213;-78
2024/02/03 11:05:24;;;;;;;7.50;4.60;;;18.60;99.90;;;;;;5082078;28;20221;-77
2024/02/03 11:07:51;;;;;;;5.40;4.10;;;18.70;99.90;;;;;;5081606;28;20228;-75
2024/02/03 11:10:18;;;;;;;5.32;3.83;;;18.70;99.90;;;;;;5077703;28;20229;-77
2024/02/03 11:12:46;;;;;;;4.28;3.88;;;18.80;99.90;;;;;;5087312;28;20237;-76
2024/02/03 11:15:15;;;;;;;7.72;4.72;;;18.90;99.90;;;;;;5079858;28;20234;-77
2024/02/03 11:17:43;;;;;;;5.13;4.63;;;18.90;99.90;;;;;;5079883;28;20213;-76
2024/02/03 11:20:19;;;;;;;6.32;4.20;;;19.10;99.90;;;;;;5081013;28;20419;-77
2024/02/03 11:22:51;;;;;;;4.78;4.38;;;19.00;99.90;;;;;;5082276;28;20274;-75
2024/02/03 11:25:19;;;;;;;4.82;4.43;;;19.10;99.90;;;;;;5082772;28;20225;-75
2024/02/03 11:27:47;;;;;;;4.78;4.07;;;19.10;99.90;;;;;;5085142;28;21037;-77
2024/02/03 11:30:17;;;;;;;4.70;4.20;;;18.80;99.90;;;;;;5083043;28;20310;-77
2024/02/03 11:32:44;;;;;;;3.78;3.47;;;18.70;99.90;;;;;;5076590;28;20572;-74
2024/02/03 11:35:12;;;;;;;4.50;4.00;;;18.90;99.90;;;;;;5078481;28;20297;-77
2024/02/03 11:37:41;;;;;;;4.88;4.15;;;19.10;99.90;;;;;;5080722;28;20198;-76
2024/02/03 11:40:08;;;;;;;4.63;4.18;;;19.10;99.90;;;;;;5081455;28;20256;-77
2024/02/03 11:42:36;;;;;;;4.30;3.88;;;19.20;99.90;;;;;;5082845;28;20299;-76
2024/02/03 11:45:04;;;;;;;5.88;4.18;;;19.10;99.90;;;;;;5075083;28;20237;-75
2024/02/03 11:47:32;;;;;;;4.07;3.60;;;19.00;99.90;;;;;;5077520;28;20252;-75
2024/02/03 11:49:58;;;;;;;4.13;3.70;;;19.10;99.90;;;;;;5077843;28;20631;-77
2024/02/03 11:52:25;;;;;;;4.82;4.38;;;19.00;99.70;;;;;;5079308;28;20751;-77
2024/02/03 11:54:54;;;;;;;5.78;3.70;;;19.00;99.80;;;;;;5079931;28;20206;-77
2024/02/03 11:57:21;;;;;;;8.82;4.55;;;19.10;99.90;;;;;;5082819;28;20202;-77
2024/02/03 11:59:48;;;;;;;4.55;3.60;;;19.10;99.90;;;;;;5081333;28;20318;-76
2024/02/03 12:02:17;;;;;;;3.97;3.67;;;18.80;98.90;;;;;;5081287;28;20867;-76
2024/02/03 12:04:45;;;;;;;4.05;3.50;;;18.50;99.90;;;;;;5084383;28;20296;-77
2024/02/03 12:07:12;;;;;;;3.85;3.45;;;18.60;99.60;;;;;;5081535;28;20710;-77
2024/02/03 12:09:39;;;;;;;3.80;3.40;;;18.50;99.90;;;;;;5077779;28;20295;-77
2024/02/03 12:12:09;;;;;;;4.90;4.25;;;18.50;99.90;;;;;;5083747;28;20253;-77
2024/02/03 12:14:37;;;;;;;5.05;4.10;;;18.60;99.90;;;;;;5080316;28;20746;-77
2024/02/03 12:17:04;;;;;;;3.50;3.20;;;18.60;99.90;;;;;;5081725;28;20301;-76
2024/02/03 12:19:31;;;;;;;3.38;3.08;;;18.60;99.40;;;;;;5078820;28;20759;-77
2024/02/03 12:21:58;;;;;;;4.85;4.18;;;18.50;99.60;;;;;;5079478;28;20253;-78
2024/02/03 12:24:25;;;;;;;5.20;4.70;;;18.50;99.40;;;;;;5072557;28;20278;-79
2024/02/03 12:26:52;;;;;;;4.40;3.80;;;18.60;99.60;;;;;;5075995;28;20217;-78
2024/02/03 12:29:21;;;;;;;4.63;4.22;;;18.90;99.40;;;;;;5072990;28;20926;-80
2024/02/03 12:31:48;;;;;;;3.80;3.10;;;19.00;99.20;;;;;;5074606;28;20304;-78
2024/02/03 12:34:15;;;;;;;3.45;3.15;;;19.20;99.00;;;;;;5086076;28;20278;-78
2024/02/03 12:36:42;;;;;;;2.92;2.63;;;19.20;98.30;;;;;;5085968;28;20228;-78
2024/02/03 12:39:11;;;;;;;2.60;2.40;;;19.00;98.00;;;;;;5084082;28;20299;-79
2024/02/03 12:41:38;;;;;;;2.40;2.10;;;18.60;98.50;;;;;;5080307;28;20912;-79
2024/02/03 12:44:05;;;;;;;2.40;2.20;;;18.30;99.10;;;;;;5085852;28;20202;-78
2024/02/03 12:46:35;;;;;;;4.38;2.60;;;18.20;99.50;;;;;;5077433;28;20216;-76
2024/02/03 12:49:02;;;;;;;2.67;2.30;;;18.30;99.60;;;;;;5079053;28;20217;-76
2024/02/03 12:51:29;;;;;;;2.55;2.35;;;18.50;99.60;;;;;;5075630;28;20331;-77
2024/02/03 12:53:57;;;;;;;2.50;2.30;;;18.60;98.80;;;;;;5077811;28;20210;-76
2024/02/03 12:56:24;;;;;;;3.05;2.70;;;18.60;99.10;;;;;;5078338;28;20221;-77